createdAt,value
2019-03-28T00:00:09.518Z,90.80
2019-03-28T00:02:37.947Z,91.39
2019-03-28T00:05:07.885Z,91.25
2019-03-28T00:07:36.012Z,90.33
2019-03-28T00:10:03.879Z,94.09
2019-03-28T00:12:32.236Z,95.34
2019-03-28T00:17:34.808Z,94.99
2019-03-28T00:20:03.152Z,92.21
2019-03-28T00:25:30.728Z,90.26
2019-03-28T00:27:59.105Z,92.53
2019-03-28T00:30:27.444Z,94.08
2019-03-28T00:32:55.830Z,92.73
2019-03-28T00:35:24.183Z,91.96
2019-03-28T00:37:53.538Z,89.99
2019-03-28T00:40:21.930Z,91.55
2019-03-28T00:42:50.269Z,93.47
2019-03-28T00:45:18.653Z,93.49
2019-03-28T00:47:46.988Z,93.13
2019-03-28T00:50:15.416Z,91.99
2019-03-28T00:52:43.793Z,90.97
2019-03-28T00:55:12.202Z,91.35
2019-03-28T00:57:40.566Z,90.83
2019-03-28T01:00:08.909Z,90.88
2019-03-28T01:02:37.249Z,91.33
2019-03-28T01:05:06.283Z,91.30
2019-03-28T01:07:34.661Z,92.16
2019-03-28T01:10:02.998Z,89.92
2019-03-28T01:12:31.373Z,89.44
2019-03-28T01:14:59.731Z,88.24
2019-03-28T01:17:28.112Z,89.81
2019-03-28T01:19:56.440Z,91.47
2019-03-28T01:22:24.791Z,91.45
2019-03-28T01:24:53.138Z,89.56
2019-03-28T01:27:21.522Z,88.96
2019-03-28T01:29:50.768Z,89.57
2019-03-28T01:32:19.401Z,90.54
2019-03-28T01:34:47.744Z,91.77
2019-03-28T01:37:16.094Z,90.86
2019-03-28T01:39:44.432Z,90.52
2019-03-28T01:42:12.788Z,91.26
2019-03-28T01:44:41.125Z,91.95
2019-03-28T01:47:09.534Z,92.74
2019-03-28T01:49:37.898Z,93.37
2019-03-28T01:52:06.256Z,91.18
2019-03-28T01:54:34.613Z,92.74
2019-03-28T01:57:10.785Z,92.37
2019-03-28T01:59:31.424Z,93.56
2019-03-28T02:01:59.771Z,94.62
2019-03-28T02:04:28.141Z,94.70
2019-03-28T02:06:56.521Z,94.46
2019-03-28T02:09:24.864Z,92.41
2019-03-28T02:11:53.242Z,93.00
2019-03-28T02:16:55.765Z,93.41
2019-03-28T02:19:24.099Z,92.68
2019-03-28T02:21:53.199Z,93.90
2019-03-28T02:24:20.812Z,96.02
2019-03-28T02:26:49.158Z,96.12
2019-03-28T02:31:51.688Z,92.34
2019-03-28T02:34:20.024Z,93.29
2019-03-28T02:36:48.376Z,94.63
2019-03-28T02:39:16.732Z,95.74
2019-03-28T02:41:45.072Z,94.57
2019-03-28T02:44:13.461Z,94.94
2019-03-28T02:46:41.794Z,96.46
2019-03-28T02:49:10.205Z,97.80
2019-03-28T02:51:38.578Z,98.29
2019-03-28T02:54:06.946Z,98.51
2019-03-28T02:56:35.292Z,98.56
2019-03-28T02:59:03.638Z,97.43
2019-03-28T03:01:31.989Z,96.88
2019-03-28T03:04:00.362Z,97.02
2019-03-28T03:06:28.703Z,96.46
2019-03-28T03:08:57.054Z,96.46
2019-03-28T03:11:25.426Z,95.90
2019-03-28T03:13:53.753Z,95.42
2019-03-28T03:16:22.716Z,95.15
2019-03-28T03:18:50.500Z,94.86
2019-03-28T03:21:18.853Z,94.17
2019-03-28T03:23:47.204Z,93.59
2019-03-28T03:26:15.545Z,93.16
2019-03-28T03:28:43.915Z,94.40
2019-03-28T03:31:12.271Z,94.74
2019-03-28T03:33:40.648Z,93.80
2019-03-28T03:36:08.976Z,93.08
2019-03-28T03:38:37.333Z,93.89
2019-03-28T03:41:05.692Z,93.37
2019-03-28T03:43:34.058Z,92.83
2019-03-28T03:46:02.412Z,92.75
2019-03-28T03:48:31.721Z,93.02
2019-03-28T03:51:00.097Z,91.65
2019-03-28T03:53:28.441Z,92.18
2019-03-28T03:55:56.796Z,92.97
2019-03-28T04:01:02.391Z,92.17
2019-03-28T04:03:30.760Z,93.23
2019-03-28T04:05:59.098Z,93.71
2019-03-28T04:08:27.493Z,95.02
2019-03-28T04:11:01.266Z,95.13
2019-03-28T04:13:29.782Z,95.26
2019-03-28T04:15:58.146Z,94.34
2019-03-28T04:18:26.517Z,94.43
2019-03-28T04:20:54.978Z,95.11
2019-03-28T04:25:57.502Z,91.62
2019-03-28T04:28:32.070Z,94.40
2019-03-28T04:30:54.253Z,93.50
2019-03-28T04:33:22.683Z,95.23
2019-03-28T04:35:51.081Z,94.98
2019-03-28T04:38:19.412Z,95.62
2019-03-28T04:40:47.739Z,96.74
2019-03-28T04:43:16.074Z,96.55
2019-03-28T04:45:44.436Z,96.15
2019-03-28T04:48:12.808Z,93.75
2019-03-28T04:50:41.242Z,94.74
2019-03-28T04:53:09.609Z,94.61
2019-03-28T04:55:38.039Z,94.60
2019-03-28T04:58:06.374Z,94.56
2019-03-28T05:00:34.719Z,95.10
2019-03-28T05:03:03.097Z,94.96
2019-03-28T05:05:32.339Z,95.16
2019-03-28T05:07:59.772Z,94.01
2019-03-28T05:10:28.153Z,94.38
2019-03-28T05:12:56.506Z,93.25
2019-03-28T05:15:24.861Z,93.28
2019-03-28T05:17:53.211Z,92.67
2019-03-28T05:20:21.723Z,91.76
2019-03-28T05:22:50.104Z,93.59
2019-03-28T05:25:18.458Z,95.40
2019-03-28T05:27:46.845Z,93.79
2019-03-28T05:30:15.260Z,93.68
2019-03-28T05:32:43.611Z,93.71
2019-03-28T05:37:49.211Z,92.74
2019-03-28T05:40:17.633Z,91.10
2019-03-28T05:42:46.015Z,90.67
2019-03-28T05:45:14.374Z,90.59
2019-03-28T05:47:42.724Z,92.85
2019-03-28T05:50:11.077Z,93.63
2019-03-28T05:52:39.448Z,93.43
2019-03-28T05:55:07.807Z,93.96
2019-03-28T05:57:36.188Z,93.67
2019-03-28T06:00:04.619Z,93.25
2019-03-28T06:02:32.993Z,92.82
2019-03-28T06:05:01.701Z,91.42
2019-03-28T06:07:30.073Z,91.00
2019-03-28T06:09:58.393Z,90.39
2019-03-28T06:12:26.765Z,89.54
2019-03-28T06:14:55.104Z,87.21
2019-03-28T06:17:23.454Z,86.75
2019-03-28T06:22:26.070Z,86.50
2019-03-28T06:24:54.401Z,88.65
2019-03-28T06:27:22.758Z,88.97
2019-03-28T06:29:51.108Z,87.52
2019-03-28T06:32:19.460Z,85.34
2019-03-28T06:34:47.831Z,84.31
2019-03-28T06:37:16.163Z,83.51
2019-03-28T06:39:44.498Z,82.63
2019-03-28T06:42:12.852Z,80.28
2019-03-28T06:44:41.209Z,81.05
2019-03-28T06:47:09.589Z,80.40
2019-03-28T06:49:37.927Z,79.58
2019-03-28T06:52:06.286Z,79.20
2019-03-28T06:54:34.637Z,78.70
2019-03-28T06:57:02.996Z,77.75
2019-03-28T06:59:37.268Z,77.19
2019-03-28T07:04:36.928Z,72.56
2019-03-28T07:07:05.383Z,72.71
2019-03-28T07:09:34.584Z,68.99
2019-03-28T07:12:02.931Z,68.06
2019-03-28T07:17:05.624Z,69.64
2019-03-28T07:19:33.963Z,66.76
2019-03-28T07:22:03.293Z,69.60
2019-03-28T07:24:31.642Z,67.64
2019-03-28T07:27:00.000Z,68.37
2019-03-28T07:29:28.369Z,70.02
2019-03-28T07:31:56.719Z,69.05
2019-03-28T07:34:25.108Z,68.51
2019-03-28T07:36:53.505Z,67.78
2019-03-28T07:39:22.800Z,68.58
2019-03-28T07:41:51.117Z,67.39
2019-03-28T07:44:19.634Z,68.64
2019-03-28T07:46:47.935Z,65.16
2019-03-28T07:49:16.264Z,65.95
2019-03-28T07:51:44.621Z,64.96
2019-03-28T07:54:13.923Z,66.73
2019-03-28T07:59:16.448Z,64.53
2019-03-28T08:01:44.817Z,65.35
2019-03-28T08:04:13.199Z,60.21
2019-03-28T08:06:49.774Z,61.54
2019-03-28T08:09:09.886Z,62.27
2019-03-28T08:11:38.796Z,61.20
2019-03-28T08:14:06.596Z,62.19
2019-03-28T08:16:34.940Z,60.25
2019-03-28T08:19:03.362Z,59.18
2019-03-28T08:21:31.710Z,59.53
2019-03-28T08:24:00.047Z,57.83
2019-03-28T08:26:30.262Z,58.26
2019-03-28T08:28:57.733Z,59.41
2019-03-28T08:31:26.092Z,58.21
2019-03-28T08:36:28.691Z,51.69
2019-03-28T08:38:57.046Z,53.17
2019-03-28T08:41:26.389Z,50.20
2019-03-28T08:43:54.766Z,48.85
2019-03-28T08:46:23.274Z,49.26
2019-03-28T08:48:51.641Z,50.90
2019-03-28T08:51:19.984Z,54.30
2019-03-28T08:53:48.337Z,53.03
2019-03-28T08:56:16.678Z,53.48
2019-03-28T08:58:45.053Z,51.40
2019-03-28T09:01:13.473Z,50.08
2019-03-28T09:03:41.845Z,46.19
2019-03-28T09:06:10.193Z,45.83
2019-03-28T09:08:38.565Z,45.30
2019-03-28T09:11:07.913Z,42.00
2019-03-28T09:13:36.296Z,43.80
2019-03-28T09:16:04.748Z,41.33
2019-03-28T09:18:33.094Z,37.67
2019-03-28T09:21:01.504Z,41.73
2019-03-28T09:23:29.843Z,39.67
2019-03-28T09:25:58.235Z,42.82
2019-03-28T09:28:26.590Z,41.34
2019-03-28T09:33:29.297Z,42.82
2019-03-28T09:38:31.977Z,34.61
2019-03-28T09:41:00.355Z,34.60
2019-03-28T09:46:02.988Z,36.31
2019-03-28T09:48:31.377Z,32.88
2019-03-28T09:51:00.366Z,30.12
2019-03-28T09:53:28.090Z,30.19
2019-03-28T09:55:56.452Z,28.77
2019-03-28T09:58:24.787Z,28.23
2019-03-28T10:01:02.624Z,33.02
2019-03-28T10:03:22.440Z,29.49
2019-03-28T10:05:50.836Z,34.41
2019-03-28T10:08:19.204Z,27.90
2019-03-28T10:13:21.867Z,31.50
2019-03-28T10:15:50.253Z,31.10
2019-03-28T10:20:52.843Z,37.57
2019-03-28T10:23:21.213Z,30.93
2019-03-28T10:28:18.547Z,28.33
2019-03-28T10:30:46.949Z,25.12
2019-03-28T10:35:49.562Z,29.85
2019-03-28T10:38:17.966Z,30.46
2019-03-28T10:40:46.376Z,31.02
2019-03-28T10:43:14.749Z,31.46
2019-03-28T10:45:43.132Z,32.09
2019-03-28T10:48:11.555Z,29.93
2019-03-28T10:50:42.519Z,30.80
2019-03-28T10:53:08.405Z,30.26
2019-03-28T10:55:36.806Z,27.96
2019-03-28T11:00:42.523Z,34.88
2019-03-28T11:03:10.973Z,32.64
2019-03-28T11:05:39.345Z,34.35
2019-03-28T11:08:07.734Z,31.22
2019-03-28T11:10:36.115Z,28.25
2019-03-28T11:13:04.538Z,28.29
2019-03-28T11:15:32.908Z,27.98
2019-03-28T11:20:40.614Z,29.51
2019-03-28T11:23:08.975Z,32.18
2019-03-28T11:25:37.437Z,33.02
2019-03-28T11:28:06.055Z,32.36
2019-03-28T11:30:34.472Z,34.29
2019-03-28T11:35:38.184Z,31.06
2019-03-28T11:38:09.422Z,31.30
2019-03-28T11:40:35.090Z,36.12
2019-03-28T11:43:03.533Z,35.23
2019-03-28T11:45:31.936Z,36.29
2019-03-28T11:48:00.312Z,35.67
2019-03-28T11:50:28.756Z,33.25
2019-03-28T11:52:57.140Z,32.99
2019-03-28T11:55:30.260Z,33.25
2019-03-28T11:57:58.658Z,33.60
2019-03-28T12:00:27.045Z,30.42
2019-03-28T12:02:55.428Z,29.66
2019-03-28T12:05:23.856Z,30.17
2019-03-28T12:07:52.248Z,31.06
2019-03-28T12:10:20.636Z,32.14
2019-03-28T12:12:49.089Z,33.71
2019-03-28T12:15:17.493Z,32.92
2019-03-28T12:17:45.906Z,31.31
2019-03-28T12:20:14.352Z,27.71
2019-03-28T12:22:44.265Z,32.46
2019-03-28T12:25:12.626Z,33.58
2019-03-28T12:27:41.039Z,31.82
2019-03-28T12:30:10.070Z,29.83
2019-03-28T12:32:38.485Z,30.19
2019-03-28T12:35:06.861Z,29.77
2019-03-28T12:37:35.290Z,27.04
2019-03-28T12:40:03.673Z,27.43
2019-03-28T12:45:10.066Z,26.03
2019-03-28T12:47:42.812Z,23.62
2019-03-28T12:50:08.264Z,25.32
2019-03-28T12:52:36.672Z,23.25
2019-03-28T12:55:06.712Z,24.94
2019-03-28T12:57:35.105Z,26.23
2019-03-28T13:00:04.272Z,27.69
2019-03-28T13:02:32.661Z,28.60
2019-03-28T13:05:01.057Z,28.43
2019-03-28T13:07:29.490Z,29.16
2019-03-28T13:09:57.889Z,31.83
2019-03-28T13:12:26.332Z,29.60
2019-03-28T13:14:54.749Z,29.91
2019-03-28T13:17:23.184Z,31.20
2019-03-28T13:19:51.568Z,30.27
2019-03-28T13:22:19.953Z,28.62
2019-03-28T13:24:48.356Z,27.97
2019-03-28T13:27:16.771Z,28.62
2019-03-28T13:29:45.196Z,31.81
2019-03-28T13:32:13.615Z,38.34
2019-03-28T13:37:16.335Z,34.45
2019-03-28T13:39:44.810Z,33.88
2019-03-28T13:42:13.175Z,33.83
2019-03-28T13:44:41.575Z,35.47
2019-03-28T13:49:44.389Z,36.95
2019-03-28T13:52:12.839Z,37.21
2019-03-28T13:54:41.217Z,37.82
2019-03-28T13:57:09.642Z,41.01
2019-03-28T14:04:46.702Z,39.15
2019-03-28T14:07:17.311Z,38.33
2019-03-28T14:12:17.800Z,39.55
2019-03-28T14:14:46.196Z,38.96
2019-03-28T14:17:14.641Z,40.37
2019-03-28T14:19:44.020Z,40.38
2019-03-28T14:22:12.412Z,39.30
2019-03-28T14:24:41.772Z,41.08
2019-03-28T14:27:10.164Z,39.11
2019-03-28T14:29:38.565Z,41.86
2019-03-28T14:32:06.999Z,40.78
2019-03-28T14:34:36.323Z,40.41
2019-03-28T14:37:04.780Z,40.27
2019-03-28T14:39:33.230Z,40.02
2019-03-28T14:42:01.640Z,40.06
2019-03-28T14:44:30.053Z,39.99
2019-03-28T14:46:58.448Z,38.71
2019-03-28T14:49:27.740Z,38.65
2019-03-28T14:51:56.129Z,39.00
2019-03-28T14:54:24.525Z,37.18
2019-03-28T14:56:53.930Z,35.98
2019-03-28T14:59:32.525Z,37.64
2019-03-28T15:01:50.760Z,37.71
2019-03-28T15:04:19.160Z,36.17
2019-03-28T15:06:48.479Z,37.24
2019-03-28T15:09:17.756Z,37.34
2019-03-28T15:11:46.130Z,37.82
2019-03-28T15:14:14.535Z,42.14
2019-03-28T15:19:17.267Z,39.45
2019-03-28T15:21:45.639Z,39.78
2019-03-28T15:24:14.060Z,39.46
2019-03-28T15:26:42.619Z,39.04
2019-03-28T15:29:10.855Z,38.60
2019-03-28T15:31:39.371Z,38.51
2019-03-28T15:34:07.755Z,38.32
2019-03-28T15:36:36.161Z,38.36
2019-03-28T15:39:05.658Z,38.92
2019-03-28T15:41:32.939Z,39.28
2019-03-28T15:44:01.344Z,37.63
2019-03-28T15:49:03.990Z,35.50
2019-03-28T15:51:32.375Z,35.98
2019-03-28T15:54:00.813Z,35.77
2019-03-28T15:56:29.204Z,34.13
2019-03-28T15:58:57.596Z,35.56
2019-03-28T16:01:26.940Z,33.78
2019-03-28T16:03:55.354Z,33.74
2019-03-28T16:06:23.751Z,34.29
2019-03-28T16:14:05.790Z,38.63
2019-03-28T16:16:35.140Z,39.22
2019-03-28T16:19:05.870Z,39.31
2019-03-28T16:21:33.891Z,40.52
2019-03-28T16:24:02.277Z,41.71
2019-03-28T16:26:31.647Z,42.04
2019-03-28T16:29:00.023Z,42.64
2019-03-28T16:34:07.133Z,43.98
2019-03-28T16:36:34.133Z,43.56
2019-03-28T16:39:02.603Z,44.53
2019-03-28T16:44:07.274Z,44.25
2019-03-28T16:49:09.925Z,45.80
2019-03-28T16:51:38.469Z,45.90
2019-03-28T16:54:06.876Z,45.68
2019-03-28T16:56:35.316Z,45.97
2019-03-28T16:59:03.700Z,46.08
2019-03-28T17:01:32.132Z,46.58
2019-03-28T17:04:00.512Z,46.52
2019-03-28T17:06:28.900Z,46.62
2019-03-28T17:08:57.438Z,48.59
2019-03-28T17:11:25.869Z,48.59
2019-03-28T17:13:54.244Z,48.75
2019-03-28T17:16:22.645Z,49.17
2019-03-28T17:18:51.029Z,48.83
2019-03-28T17:21:19.425Z,49.29
2019-03-28T17:26:22.165Z,49.43
2019-03-28T17:28:50.503Z,49.15
2019-03-28T17:31:19.203Z,51.09
2019-03-28T17:33:47.359Z,51.00
2019-03-28T17:36:21.638Z,51.83
2019-03-28T17:38:51.167Z,53.16
2019-03-28T17:41:19.556Z,51.33
2019-03-28T17:43:47.959Z,52.51
2019-03-28T17:46:16.372Z,51.53
2019-03-28T17:48:44.760Z,52.99
2019-03-28T17:51:13.193Z,54.60
2019-03-28T17:53:41.616Z,54.12
2019-03-28T17:56:10.003Z,54.70
2019-03-28T17:58:38.407Z,54.71
2019-03-28T18:01:06.809Z,54.60
2019-03-28T18:03:35.196Z,55.84
2019-03-28T18:06:03.580Z,55.87
2019-03-28T18:08:31.991Z,55.54
2019-03-28T18:11:00.569Z,57.96
2019-03-28T18:13:28.740Z,56.16
2019-03-28T18:18:31.345Z,57.39
2019-03-28T18:20:59.723Z,58.50
2019-03-28T18:23:29.086Z,57.20
2019-03-28T18:25:57.463Z,58.29
2019-03-28T18:28:25.863Z,57.99
2019-03-28T18:30:54.237Z,58.95
2019-03-28T18:33:22.635Z,60.23
2019-03-28T18:35:51.021Z,59.17
2019-03-28T18:38:19.443Z,58.38
2019-03-28T18:40:47.827Z,58.43
2019-03-28T18:43:16.213Z,58.73
2019-03-28T18:45:44.599Z,59.26
2019-03-28T18:48:26.946Z,60.16
2019-03-28T18:50:41.578Z,60.69
2019-03-28T18:53:09.809Z,62.45
2019-03-28T18:55:38.145Z,61.83
2019-03-28T18:58:06.628Z,62.70
2019-03-28T19:03:09.220Z,63.90
2019-03-28T19:05:37.587Z,62.29
2019-03-28T19:08:06.056Z,63.74
2019-03-28T19:10:34.431Z,64.15
2019-03-28T19:13:04.709Z,65.30
2019-03-28T19:15:31.224Z,64.44
2019-03-28T19:17:59.833Z,65.64
2019-03-28T19:20:28.092Z,65.39
2019-03-28T19:22:56.495Z,65.80
2019-03-28T19:25:24.871Z,65.83
2019-03-28T19:30:28.379Z,65.83
2019-03-28T19:32:56.763Z,67.12
2019-03-28T19:35:32.873Z,66.07
2019-03-28T19:37:53.538Z,67.43
2019-03-28T19:42:56.163Z,68.33
2019-03-28T19:45:31.223Z,67.32
2019-03-28T19:47:59.619Z,68.59
2019-03-28T19:50:29.545Z,67.07
2019-03-28T19:52:57.404Z,68.73
2019-03-28T19:55:25.807Z,67.93
2019-03-28T19:57:54.235Z,67.07
2019-03-28T20:03:00.087Z,69.52
2019-03-28T20:05:25.227Z,68.78
2019-03-28T20:07:55.556Z,67.49
2019-03-28T20:10:23.938Z,68.01
2019-03-28T20:12:52.353Z,68.51
2019-03-28T20:15:20.754Z,68.27
2019-03-28T20:17:49.135Z,69.81
2019-03-28T20:20:17.528Z,69.33
2019-03-28T20:22:46.915Z,68.54
2019-03-28T20:27:49.946Z,68.88
2019-03-28T20:30:18.991Z,69.91
2019-03-28T20:32:47.362Z,69.11
2019-03-28T20:35:15.824Z,69.69
2019-03-28T20:37:44.216Z,70.04
2019-03-28T20:40:12.622Z,70.25
2019-03-28T20:45:15.235Z,72.24
2019-03-28T20:47:43.597Z,71.87
2019-03-28T20:50:12.007Z,71.03
2019-03-28T20:52:41.331Z,71.96
2019-03-28T20:55:09.723Z,70.70
2019-03-28T20:57:40.442Z,69.91
2019-03-28T21:00:08.471Z,72.16
2019-03-28T21:02:34.899Z,72.85
2019-03-28T21:05:03.280Z,72.14
2019-03-28T21:07:31.656Z,74.08
2019-03-28T21:10:00.036Z,72.92
2019-03-28T21:12:28.459Z,74.00
2019-03-28T21:14:56.838Z,71.63
2019-03-28T21:17:25.220Z,71.91
2019-03-28T21:22:27.851Z,71.89
2019-03-28T21:27:30.494Z,73.30
2019-03-28T21:29:59.901Z,72.95
2019-03-28T21:32:28.237Z,73.56
2019-03-28T21:34:56.798Z,75.08
2019-03-28T21:37:25.047Z,74.55
2019-03-28T21:39:53.565Z,75.85
2019-03-28T21:42:21.904Z,75.12
2019-03-28T21:44:50.212Z,78.22
2019-03-28T21:47:18.552Z,78.44
2019-03-28T21:49:46.982Z,78.15
2019-03-28T21:52:15.335Z,77.58
2019-03-28T21:54:43.649Z,75.04
2019-03-28T21:57:14.574Z,77.89
2019-03-28T21:59:40.352Z,74.88
2019-03-28T22:02:08.787Z,75.06
2019-03-28T22:04:37.777Z,77.11
2019-03-28T22:07:06.154Z,76.01
2019-03-28T22:09:34.494Z,78.02
2019-03-28T22:12:03.153Z,77.85
2019-03-28T22:14:31.209Z,77.69
2019-03-28T22:16:59.580Z,77.36
2019-03-28T22:19:27.990Z,76.78
2019-03-28T22:21:57.326Z,76.77
2019-03-28T22:24:25.680Z,80.61
2019-03-28T22:26:54.017Z,78.62
2019-03-28T22:29:22.359Z,77.56
2019-03-28T22:31:50.705Z,80.12
2019-03-28T22:34:19.054Z,80.54
2019-03-28T22:36:57.059Z,80.89
2019-03-28T22:39:15.780Z,81.31
2019-03-28T22:41:44.128Z,78.06
2019-03-28T22:44:14.295Z,78.31
2019-03-28T22:46:40.856Z,80.19
2019-03-28T22:49:09.208Z,82.33
2019-03-28T22:51:37.552Z,81.83
2019-03-28T22:54:05.879Z,82.42
2019-03-28T22:56:34.248Z,82.88
2019-03-28T22:59:02.592Z,83.37
2019-03-28T23:01:30.954Z,82.21
2019-03-28T23:03:59.311Z,81.49
2019-03-28T23:09:03.864Z,81.35
2019-03-28T23:11:32.210Z,81.66
2019-03-28T23:14:00.716Z,82.54
2019-03-28T23:19:03.331Z,81.47
2019-03-28T23:24:06.016Z,81.52
2019-03-28T23:26:34.925Z,81.33
2019-03-28T23:29:02.815Z,84.08
2019-03-28T23:31:31.216Z,82.89
2019-03-28T23:33:59.575Z,82.65
2019-03-28T23:36:27.978Z,84.00
2019-03-28T23:38:56.333Z,84.34
2019-03-28T23:41:26.646Z,82.19
2019-03-28T23:43:55.031Z,83.94
2019-03-28T23:46:24.335Z,84.39
2019-03-28T23:48:52.717Z,85.02
2019-03-28T23:51:21.060Z,85.34
2019-03-28T23:53:49.437Z,85.38
2019-03-28T23:56:17.769Z,85.84
2019-03-28T23:58:46.870Z,86.35
